Terminal Aerodrome Forecast
Issued by NWS New Orleans/Baton Rouge, LA

Home | Current Version | Previous Version | Text Only | Print | Product List | Glossary On
Versions: 1 2 3 4 5 6 7 8 9 10 11 12 13 14 15 16
000
FTUS44 KLIX 301120
TAFNEW
TAF
KNEW 301120Z 3012/3112 09003KT P6SM -RA FEW020 OVC110
     FM301500 09010KT P6SM OVC100
      TEMPO 3015/3019 4SM TSRA OVC040CB
     FM302100 12013KT P6SM SHRA VCTS OVC090CB
     FM310000 14013KT P6SM BKN080=

USA.gov is the U.S. government's official web portal to all federal, state and local government web resources and services.